Time;durP1;ratioP1;P1;durP2;ratioP2;P2;SDS_P1;SDS_P2;PMS_P1;PMS_P2;Temp;Humidity;BMP_temperature;BMP_pressure;BME280_temperature;BME280_humidity;BME280_pressure;Samples;Min_cycle;Max_cycle;Signal;HPM_P1;HPM_P2
2022/06/12 00:02:26;;;;;;;3.28;2.90;;;12.50;99.90;;;;;;5017752;28;20037;-84
2022/06/12 00:04:54;;;;;;;6.38;3.22;;;12.50;99.90;;;;;;5025705;28;20139;-83
2022/06/12 00:07:22;;;;;;;3.90;3.60;;;12.50;99.90;;;;;;5052569;28;20041;-83
2022/06/12 00:09:50;;;;;;;5.03;4.22;;;12.50;99.90;;;;;;5050573;28;20055;-83
2022/06/12 00:12:18;;;;;;;4.10;3.70;;;12.60;99.90;;;;;;5017903;28;20060;-83
2022/06/12 00:14:46;;;;;;;6.38;5.25;;;12.60;99.90;;;;;;5017521;28;20486;-84
2022/06/12 00:17:14;;;;;;;3.72;3.42;;;12.60;99.90;;;;;;5017494;28;20044;-83
2022/06/12 00:19:44;;;;;;;3.28;3.00;;;12.60;99.90;;;;;;5017767;28;20426;-84
2022/06/12 00:22:12;;;;;;;4.65;4.25;;;12.50;99.90;;;;;;5034122;28;20444;-84
2022/06/12 00:24:40;;;;;;;3.10;2.80;;;12.40;99.90;;;;;;5034321;28;20414;-83
2022/06/12 00:27:08;;;;;;;6.28;3.83;;;12.30;99.90;;;;;;5050881;28;20045;-83
2022/06/12 00:29:38;;;;;;;5.30;4.80;;;12.20;99.90;;;;;;5016836;28;20040;-84
2022/06/12 00:32:12;;;;;;;4.50;4.10;;;12.20;99.90;;;;;;5017783;28;20048;-83
2022/06/12 00:34:44;;;;;;;4.38;3.85;;;12.20;99.90;;;;;;5034045;28;20041;-84
2022/06/12 00:37:14;;;;;;;4.38;4.00;;;12.20;99.90;;;;;;5017387;28;20029;-84
2022/06/12 00:39:42;;;;;;;6.97;3.63;;;12.20;99.90;;;;;;5013967;28;20043;-84
2022/06/12 00:42:24;;;;;;;3.28;2.97;;;12.10;99.90;;;;;;5013355;28;20042;-84
2022/06/12 00:44:55;;;;;;;3.70;3.40;;;12.10;99.90;;;;;;4997623;28;20056;-84
2022/06/12 00:47:23;;;;;;;5.13;4.13;;;12.10;99.90;;;;;;5014088;28;20399;-84
2022/06/12 00:50:05;;;;;;;4.05;3.72;;;12.10;99.90;;;;;;4996564;28;20284;-84
2022/06/12 00:52:43;;;;;;;4.95;4.45;;;12.10;99.90;;;;;;5014264;28;20057;-83
2022/06/12 00:55:54;;;;;;;4.57;4.18;;;12.20;99.90;;;;;;4996538;28;20077;-84
2022/06/12 00:58:24;;;;;;;8.48;3.92;;;12.20;99.90;;;;;;5013025;28;20045;-84
2022/06/12 01:00:53;;;;;;;6.68;3.45;;;12.20;99.90;;;;;;5012458;28;20044;-84
2022/06/12 01:03:22;;;;;;;3.88;3.58;;;12.20;99.90;;;;;;5013618;28;20483;-83
2022/06/12 01:08:38;;;;;;;4.82;4.35;;;12.00;99.90;;;;;;5013453;28;20049;-83
2022/06/12 01:11:10;;;;;;;4.25;3.67;;;12.00;99.90;;;;;;5030059;28;20037;-84
2022/06/12 01:13:42;;;;;;;6.22;4.38;;;11.90;99.90;;;;;;5013490;28;20036;-83
2022/06/12 01:16:18;;;;;;;7.30;4.38;;;11.90;99.90;;;;;;5013734;28;20510;-83
2022/06/12 01:18:51;;;;;;;4.95;4.03;;;11.80;99.90;;;;;;5030320;28;20048;-83
2022/06/12 01:21:31;;;;;;;4.30;3.90;;;11.80;99.90;;;;;;5030618;28;20041;-83
2022/06/12 01:24:10;;;;;;;4.72;4.32;;;11.80;99.90;;;;;;5033649;28;20041;-83
2022/06/12 01:27:08;;;;;;;4.47;4.05;;;11.80;99.90;;;;;;5049872;28;20438;-83
2022/06/12 01:29:52;;;;;;;4.00;3.60;;;11.80;99.90;;;;;;5032528;28;20394;-83
2022/06/12 01:32:53;;;;;;;4.40;4.00;;;11.80;99.90;;;;;;5000818;28;20056;-83
2022/06/12 01:35:46;;;;;;;4.18;3.88;;;11.80;99.90;;;;;;5005820;28;20053;-83
2022/06/12 01:38:18;;;;;;;5.93;5.32;;;11.80;99.90;;;;;;5016014;28;20049;-84
2022/06/12 01:41:08;;;;;;;5.00;4.03;;;11.90;99.90;;;;;;4991028;28;20542;-83
2022/06/12 01:43:55;;;;;;;5.10;4.55;;;12.00;99.90;;;;;;4981105;28;20038;-84
2022/06/12 01:46:28;;;;;;;4.07;3.78;;;12.00;99.90;;;;;;4980447;28;20041;-84
2022/06/12 01:49:08;;;;;;;4.80;4.38;;;12.00;99.90;;;;;;5030108;28;20414;-84
2022/06/12 01:51:52;;;;;;;3.50;3.20;;;12.00;99.90;;;;;;4996892;28;20049;-84
2022/06/12 01:54:58;;;;;;;5.60;4.97;;;12.00;99.90;;;;;;5012942;28;20760;-84
2022/06/12 01:57:51;;;;;;;5.63;4.07;;;12.10;99.90;;;;;;4949671;28;20048;-84
2022/06/12 02:00:23;;;;;;;4.25;3.88;;;12.00;99.90;;;;;;4933732;29;20051;-84
2022/06/12 02:03:28;;;;;;;4.88;4.43;;;12.00;99.90;;;;;;4917926;29;20502;-84
2022/06/12 02:06:19;;;;;;;4.60;3.53;;;11.90;99.90;;;;;;4930252;29;20044;-83
2022/06/12 02:08:54;;;;;;;4.30;3.90;;;11.90;99.90;;;;;;4997324;28;20411;-84
2022/06/12 02:14:58;;;;;;;3.75;3.45;;;12.00;99.90;;;;;;4982982;28;20049;-84
2022/06/12 02:17:35;;;;;;;5.60;3.90;;;12.10;99.90;;;;;;4960545;28;20050;-76
2022/06/12 02:20:08;;;;;;;4.72;3.75;;;12.00;99.90;;;;;;5010449;28;20046;-76
2022/06/12 02:22:39;;;;;;;3.33;3.13;;;12.00;99.90;;;;;;5016582;28;20049;-76
2022/06/12 02:25:23;;;;;;;5.93;4.10;;;12.00;99.90;;;;;;5029240;28;20053;-76
2022/06/12 02:28:08;;;;;;;3.95;3.55;;;12.00;99.90;;;;;;5012566;28;20052;-76
2022/06/12 02:30:40;;;;;;;3.22;2.92;;;12.00;99.90;;;;;;5029914;28;20060;-76
2022/06/12 02:33:12;;;;;;;6.13;3.40;;;11.90;99.90;;;;;;5011958;28;20045;-76
2022/06/12 02:35:50;;;;;;;6.25;4.05;;;12.00;99.90;;;;;;5029643;28;20068;-76
2022/06/12 02:38:25;;;;;;;4.25;3.70;;;12.00;99.90;;;;;;5021052;28;20041;-76
2022/06/12 02:41:12;;;;;;;4.68;3.55;;;12.10;99.90;;;;;;5034336;28;20499;-76
2022/06/12 02:43:44;;;;;;;5.70;3.58;;;12.10;99.90;;;;;;5050157;28;20048;-76
2022/06/12 02:46:22;;;;;;;4.88;4.43;;;12.00;99.90;;;;;;5049344;28;20461;-76
2022/06/12 02:48:50;;;;;;;4.28;3.88;;;12.00;99.90;;;;;;5049173;28;20045;-77
2022/06/12 02:51:43;;;;;;;4.05;3.75;;;12.00;99.90;;;;;;5049717;28;20072;-76
2022/06/12 02:54:27;;;;;;;3.95;3.65;;;11.90;99.90;;;;;;5006861;28;20045;-76
2022/06/12 02:57:04;;;;;;;3.33;3.13;;;11.90;99.90;;;;;;5040926;28;20057;-76
2022/06/12 02:59:50;;;;;;;8.60;3.25;;;11.90;99.90;;;;;;5049106;28;20052;-76
2022/06/12 03:02:39;;;;;;;4.10;3.70;;;11.90;99.90;;;;;;5049156;28;20041;-76
2022/06/12 03:05:24;;;;;;;3.90;3.60;;;11.90;99.90;;;;;;5048800;28;20045;-76
2022/06/12 03:08:00;;;;;;;4.07;3.75;;;12.00;99.90;;;;;;5049959;28;20053;-76
2022/06/12 03:10:38;;;;;;;4.53;4.13;;;12.00;99.90;;;;;;5048193;28;20045;-76
2022/06/12 03:13:09;;;;;;;4.20;3.90;;;12.00;99.90;;;;;;5049013;28;20072;-84
2022/06/12 03:15:40;;;;;;;3.40;3.03;;;12.10;99.90;;;;;;5031873;28;20103;-84
2022/06/12 03:18:15;;;;;;;9.38;5.15;;;12.10;99.90;;;;;;5030796;28;20056;-84
2022/06/12 03:21:01;;;;;;;3.22;2.63;;;12.10;99.90;;;;;;5015471;28;20053;-84
2022/06/12 03:23:41;;;;;;;4.38;3.15;;;12.10;99.90;;;;;;5015095;28;20416;-84
2022/06/12 03:26:20;;;;;;;3.83;3.33;;;12.00;99.90;;;;;;5018102;28;20041;-76
2022/06/12 03:29:10;;;;;;;3.53;3.22;;;12.00;99.90;;;;;;5031688;28;20384;-76
2022/06/12 03:31:54;;;;;;;5.28;4.82;;;11.90;99.90;;;;;;5044935;28;20045;-76
2022/06/12 03:34:35;;;;;;;3.58;3.28;;;11.90;99.90;;;;;;5014750;28;20037;-76
2022/06/12 03:37:08;;;;;;;3.70;3.40;;;12.00;99.90;;;;;;5032338;28;20064;-76
2022/06/12 03:40:04;;;;;;;3.92;3.63;;;12.00;99.90;;;;;;5033184;28;20061;-76
2022/06/12 03:42:40;;;;;;;6.68;4.05;;;12.10;99.90;;;;;;5032444;28;20045;-76
2022/06/12 03:45:22;;;;;;;3.17;2.88;;;12.00;99.90;;;;;;5032626;28;20053;-76
2022/06/12 03:47:58;;;;;;;3.30;3.00;;;11.80;99.90;;;;;;5032986;28;20060;-76
2022/06/12 03:50:41;;;;;;;4.10;3.80;;;11.60;99.90;;;;;;5032205;28;20048;-76
2022/06/12 03:53:20;;;;;;;5.50;5.00;;;11.50;99.90;;;;;;5032561;28;20060;-76
2022/06/12 03:59:00;;;;;;;4.13;3.83;;;11.70;99.90;;;;;;5031825;28;20045;-76
2022/06/12 04:01:31;;;;;;;5.53;5.03;;;11.80;99.90;;;;;;5032104;28;20041;-76
2022/06/12 04:04:00;;;;;;;;;;;12.00;99.90;;;;;;5033333;28;20049;-76
2022/06/12 04:06:30;;;;;;;4.00;3.60;;;12.00;99.90;;;;;;5023370;28;19936;-76
2022/06/12 04:09:04;;;;;;;3.72;2.95;;;12.00;99.90;;;;;;5032078;28;20049;-76
2022/06/12 04:11:37;;;;;;;3.65;3.30;;;12.10;99.90;;;;;;5013351;28;20060;-76
2022/06/12 04:14:10;;;;;;;4.15;3.85;;;12.20;99.90;;;;;;5040702;28;20100;-76
2022/06/12 04:16:46;;;;;;;3.42;3.13;;;12.50;99.90;;;;;;5052396;28;20049;-76
2022/06/12 04:19:24;;;;;;;4.35;3.00;;;12.90;99.90;;;;;;5051502;28;20056;-76
2022/06/12 04:21:54;;;;;;;3.72;2.88;;;13.10;99.90;;;;;;5051491;28;20044;-76
2022/06/12 04:24:48;;;;;;;3.67;3.20;;;13.30;99.90;;;;;;5052643;28;20041;-76
2022/06/12 04:27:25;;;;;;;6.18;3.88;;;13.40;99.90;;;;;;5033760;28;20045;-76
2022/06/12 04:30:01;;;;;;;5.93;3.95;;;13.50;99.90;;;;;;5051208;28;20036;-76
2022/06/12 04:32:30;;;;;;;3.85;3.55;;;13.50;99.90;;;;;;5034188;28;20059;-76
2022/06/12 04:34:58;;;;;;;4.00;3.65;;;13.60;99.90;;;;;;5050135;28;20055;-76
2022/06/12 04:37:30;;;;;;;4.50;4.10;;;13.60;99.90;;;;;;5051254;28;20441;-76
2022/06/12 04:40:00;;;;;;;6.97;4.63;;;13.60;99.90;;;;;;5050449;28;20049;-76
2022/06/12 04:42:32;;;;;;;5.32;3.10;;;13.70;99.90;;;;;;5051228;28;20388;-76
2022/06/12 04:45:00;;;;;;;4.40;3.08;;;13.70;99.90;;;;;;5051183;28;20048;-76
2022/06/12 04:47:30;;;;;;;4.05;3.63;;;13.80;99.90;;;;;;5051755;28;20060;-76
2022/06/12 04:49:58;;;;;;;3.70;3.47;;;13.90;99.90;;;;;;5032984;28;20096;-76
2022/06/12 04:52:27;;;;;;;7.63;4.30;;;14.00;99.90;;;;;;5033867;28;20056;-76
2022/06/12 04:54:55;;;;;;;5.50;3.92;;;14.20;99.90;;;;;;5050327;28;20044;-76
2022/06/12 04:57:25;;;;;;;6.20;4.28;;;14.30;99.90;;;;;;5050808;28;20041;-76
2022/06/12 04:59:53;;;;;;;4.10;3.75;;;14.40;99.90;;;;;;5051374;28;20068;-76
2022/06/12 05:02:23;;;;;;;3.67;3.38;;;14.50;99.90;;;;;;5050854;28;20045;-76
2022/06/12 05:04:52;;;;;;;5.05;3.25;;;14.60;99.90;;;;;;5050859;28;20048;-77
2022/06/12 05:07:20;;;;;;;4.68;4.28;;;14.70;99.90;;;;;;5051282;28;20041;-76
2022/06/12 05:09:48;;;;;;;4.93;3.83;;;14.90;99.90;;;;;;5049587;28;20044;-76
2022/06/12 05:12:16;;;;;;;3.25;2.78;;;15.00;99.90;;;;;;5051192;28;20040;-76
2022/06/12 05:14:44;;;;;;;4.57;3.00;;;15.30;99.90;;;;;;5032901;28;20048;-76
2022/06/12 05:17:22;;;;;;;4.22;3.83;;;15.40;99.90;;;;;;5050508;28;20056;-76
2022/06/12 05:19:51;;;;;;;3.80;3.50;;;15.60;99.90;;;;;;5050906;28;20049;-76
2022/06/12 05:22:22;;;;;;;5.07;4.05;;;15.80;99.90;;;;;;5050545;28;20076;-76
2022/06/12 05:24:50;;;;;;;5.40;4.77;;;16.00;99.90;;;;;;5050098;28;20048;-76
2022/06/12 05:27:21;;;;;;;3.72;2.95;;;16.10;99.90;;;;;;5044562;28;20049;-76
2022/06/12 05:29:49;;;;;;;4.97;4.57;;;16.20;99.90;;;;;;5030586;28;20061;-77
2022/06/12 05:32:21;;;;;;;3.47;3.22;;;16.30;99.90;;;;;;5031042;28;20076;-77
2022/06/12 05:34:50;;;;;;;4.00;3.63;;;16.20;99.90;;;;;;5030175;28;20419;-76
2022/06/12 05:37:18;;;;;;;4.00;3.70;;;16.30;99.90;;;;;;5029369;28;20045;-77
2022/06/12 05:39:46;;;;;;;3.63;3.33;;;16.30;99.90;;;;;;5030292;28;20703;-77
2022/06/12 05:42:14;;;;;;;6.78;3.70;;;16.40;99.90;;;;;;5030292;28;20045;-77
2022/06/12 05:44:42;;;;;;;3.63;3.30;;;16.40;99.90;;;;;;5030701;28;20053;-77
2022/06/12 05:47:10;;;;;;;3.58;3.28;;;16.50;99.90;;;;;;5029722;28;20414;-77
2022/06/12 05:49:38;;;;;;;7.00;3.78;;;16.50;99.90;;;;;;5030212;28;20038;-77
2022/06/12 05:52:06;;;;;;;3.38;3.15;;;16.60;99.90;;;;;;5030816;28;20479;-77
2022/06/12 05:54:34;;;;;;;5.47;4.28;;;16.60;99.90;;;;;;5030436;28;20483;-76
2022/06/12 05:57:03;;;;;;;3.67;3.38;;;16.70;99.90;;;;;;5029568;28;20045;-77
2022/06/12 05:59:31;;;;;;;3.63;3.30;;;16.70;99.90;;;;;;5030702;28;20057;-77
2022/06/12 06:01:59;;;;;;;3.65;2.72;;;16.80;99.90;;;;;;5029929;28;20049;-77
2022/06/12 06:04:26;;;;;;;3.17;2.97;;;16.90;99.90;;;;;;5013033;28;20056;-77
2022/06/12 06:06:58;;;;;;;4.10;3.20;;;16.90;99.90;;;;;;5021572;28;20052;-77
2022/06/12 06:09:27;;;;;;;6.05;3.35;;;17.00;99.90;;;;;;5029544;28;20052;-77
2022/06/12 06:11:55;;;;;;;5.47;3.05;;;17.10;99.90;;;;;;5003848;28;20053;-77
2022/06/12 06:14:23;;;;;;;3.53;3.22;;;17.10;99.90;;;;;;5040753;28;20063;-77
2022/06/12 06:16:51;;;;;;;3.45;2.70;;;17.10;99.90;;;;;;5049783;28;20049;-78
2022/06/12 06:19:19;;;;;;;2.92;2.72;;;17.30;99.90;;;;;;5050187;28;20230;-77
2022/06/12 06:21:47;;;;;;;3.35;3.05;;;17.20;99.90;;;;;;5049480;28;20052;-77
2022/06/12 06:24:15;;;;;;;3.92;3.47;;;17.30;99.90;;;;;;5050339;28;20052;-77
2022/06/12 06:26:43;;;;;;;4.07;3.78;;;17.40;99.90;;;;;;5049018;28;20053;-77
2022/06/12 06:29:11;;;;;;;3.58;3.25;;;17.50;99.90;;;;;;5049458;28;20045;-77
2022/06/12 06:31:39;;;;;;;3.28;3.03;;;17.50;99.90;;;;;;5031981;28;20064;-77
2022/06/12 06:34:07;;;;;;;3.05;2.72;;;17.50;99.90;;;;;;5049714;28;20061;-77
2022/06/12 06:36:35;;;;;;;3.30;3.00;;;17.60;99.90;;;;;;5050199;28;20363;-77
2022/06/12 06:39:03;;;;;;;4.20;3.83;;;17.80;99.90;;;;;;5028160;28;20045;-77
2022/06/12 06:41:31;;;;;;;3.50;3.20;;;17.90;99.90;;;;;;5028282;28;20399;-77
2022/06/12 06:46:45;;;;;;;2.85;2.47;;;18.10;99.90;;;;;;5029590;28;20399;-77
2022/06/12 06:49:20;;;;;;;4.07;2.78;;;18.40;99.90;;;;;;5029526;28;20495;-77
2022/06/12 06:51:49;;;;;;;3.55;3.25;;;18.40;99.90;;;;;;5029668;28;20787;-77
2022/06/12 06:54:18;;;;;;;4.68;3.95;;;18.40;99.90;;;;;;5029465;28;20515;-77
2022/06/12 06:56:47;;;;;;;2.67;2.47;;;18.50;99.90;;;;;;5029374;28;20056;-77
2022/06/12 06:59:15;;;;;;;3.78;3.47;;;18.60;99.90;;;;;;5032028;28;20056;-77
2022/06/12 07:01:43;;;;;;;2.90;2.70;;;18.70;99.90;;;;;;5033195;28;20483;-77
2022/06/12 07:04:12;;;;;;;3.20;2.90;;;18.80;99.90;;;;;;5033668;28;20392;-77
2022/06/12 07:06:40;;;;;;;6.55;3.08;;;19.00;99.90;;;;;;5015271;28;20056;-77
2022/06/12 07:09:08;;;;;;;2.95;2.72;;;19.10;99.90;;;;;;5015026;28;20069;-78
2022/06/12 07:11:36;;;;;;;2.20;1.95;;;19.30;99.90;;;;;;5014932;28;20076;-77
2022/06/12 07:14:04;;;;;;;2.83;2.10;;;19.30;99.90;;;;;;5041430;28;20049;-77
2022/06/12 07:16:34;;;;;;;3.28;2.97;;;19.40;99.90;;;;;;5053469;28;20052;-77
2022/06/12 07:19:03;;;;;;;2.80;2.60;;;19.50;99.90;;;;;;5052242;28;20399;-77
2022/06/12 07:21:31;;;;;;;3.13;2.92;;;19.70;99.90;;;;;;5052837;28;20048;-77
2022/06/12 07:23:59;;;;;;;3.72;2.58;;;19.80;99.90;;;;;;5018979;28;20060;-77
2022/06/12 07:26:33;;;;;;;2.20;2.00;;;19.80;99.90;;;;;;5034562;28;20044;-78
2022/06/12 07:29:00;;;;;;;3.13;2.83;;;19.90;99.90;;;;;;5032823;28;20471;-78
2022/06/12 07:31:29;;;;;;;2.17;1.98;;;19.90;99.90;;;;;;5032867;28;20049;-78
2022/06/12 07:33:57;;;;;;;8.68;3.58;;;20.00;99.90;;;;;;5032516;28;20525;-77
2022/06/12 07:36:26;;;;;;;1.88;1.77;;;20.00;99.90;;;;;;5033028;28;20049;-77
2022/06/12 07:38:54;;;;;;;3.22;2.20;;;20.20;99.90;;;;;;5032694;28;20033;-77
2022/06/12 07:41:43;;;;;;;2.65;2.33;;;20.40;99.90;;;;;;5031663;28;20053;-78
2022/06/12 07:44:11;;;;;;;2.58;2.38;;;20.60;99.90;;;;;;5033366;28;20050;-77
2022/06/12 07:46:39;;;;;;;3.08;2.83;;;20.70;99.90;;;;;;5014958;28;20049;-77
2022/06/12 07:49:08;;;;;;;2.42;2.22;;;20.80;99.90;;;;;;5032044;28;20505;-78
2022/06/12 07:51:36;;;;;;;2.50;2.40;;;20.80;99.90;;;;;;5033064;28;20419;-77
2022/06/12 07:54:04;;;;;;;2.20;2.10;;;21.00;99.90;;;;;;5032339;28;20053;-78
2022/06/12 07:56:32;;;;;;;2.03;1.85;;;21.10;99.90;;;;;;5032036;28;20072;-77
2022/06/12 07:59:00;;;;;;;3.03;2.83;;;21.20;99.90;;;;;;5014275;28;20407;-77
2022/06/12 08:01:29;;;;;;;3.35;3.00;;;21.30;99.90;;;;;;5032290;28;20048;-78
2022/06/12 08:03:57;;;;;;;3.88;2.97;;;21.40;99.90;;;;;;5032618;28;20041;-77
2022/06/12 08:06:26;;;;;;;3.30;2.83;;;21.40;99.90;;;;;;5026342;28;20045;-77
2022/06/12 08:08:56;;;;;;;2.50;2.17;;;21.50;99.90;;;;;;5051639;28;20061;-77
2022/06/12 08:11:30;;;;;;;3.08;2.88;;;21.60;99.90;;;;;;5051834;28;20395;-78
2022/06/12 08:13:59;;;;;;;3.20;2.90;;;21.70;99.90;;;;;;5052013;28;20136;-77
2022/06/12 08:16:27;;;;;;;2.47;2.30;;;21.70;99.90;;;;;;5052577;28;20049;-83
2022/06/12 08:18:55;;;;;;;2.95;2.42;;;21.70;99.90;;;;;;5043787;28;20071;-85
2022/06/12 08:21:23;;;;;;;1.83;1.73;;;21.80;99.90;;;;;;5034131;28;20056;-84
2022/06/12 08:23:54;;;;;;;2.08;1.88;;;21.90;99.90;;;;;;5018277;28;20045;-85
2022/06/12 08:26:26;;;;;;;3.60;3.30;;;22.00;99.90;;;;;;5034118;28;20052;-84
2022/06/12 08:29:03;;;;;;;2.42;2.25;;;22.00;99.90;;;;;;5052377;28;20041;-84
2022/06/12 08:31:37;;;;;;;3.35;2.40;;;21.90;99.90;;;;;;5034355;28;20506;-84
2022/06/12 08:34:10;;;;;;;2.00;1.90;;;21.80;99.90;;;;;;5033619;28;20056;-85
2022/06/12 08:36:39;;;;;;;2.03;1.85;;;22.00;99.90;;;;;;5017850;28;20059;-84
2022/06/12 08:39:07;;;;;;;2.78;2.58;;;22.20;99.90;;;;;;5017177;28;20053;-84
2022/06/12 08:41:41;;;;;;;9.80;2.92;;;22.20;99.90;;;;;;5016785;28;20044;-85
2022/06/12 08:44:38;;;;;;;3.00;1.95;;;22.30;99.90;;;;;;5034328;28;20060;-85
2022/06/12 08:47:35;;;;;;;1.90;1.80;;;22.10;99.90;;;;;;5051656;28;20049;-85
2022/06/12 08:50:40;;;;;;;2.05;1.90;;;22.10;99.90;;;;;;5017337;28;20041;-84
2022/06/12 08:53:49;;;;;;;2.10;2.00;;;22.10;99.90;;;;;;5018071;28;20506;-85
2022/06/12 08:56:48;;;;;;;2.08;1.90;;;22.10;99.90;;;;;;5033644;28;20508;-84
2022/06/12 08:59:31;;;;;;;2.38;2.17;;;22.00;99.90;;;;;;5033035;28;20041;-85
2022/06/12 09:02:03;;;;;;;2.85;1.83;;;22.10;99.90;;;;;;5017207;28;20052;-85
2022/06/12 09:04:33;;;;;;;10.00;2.30;;;22.10;99.90;;;;;;5051540;28;20049;-85
2022/06/12 09:07:28;;;;;;;2.13;2.03;;;22.10;99.90;;;;;;5050732;28;20037;-85
2022/06/12 09:10:04;;;;;;;3.40;1.92;;;22.20;99.90;;;;;;4969575;28;20291;-85
2022/06/12 09:12:39;;;;;;;2.42;2.22;;;22.30;99.90;;;;;;5034046;28;20437;-82
2022/06/12 09:15:39;;;;;;;2.97;2.30;;;22.40;99.90;;;;;;5017225;28;20049;-85
2022/06/12 09:18:27;;;;;;;1.35;1.30;;;22.60;99.90;;;;;;5016562;28;20044;-83
2022/06/12 09:21:23;;;;;;;2.30;2.10;;;22.60;99.90;;;;;;5032306;28;20418;-84
2022/06/12 09:23:57;;;;;;;2.00;1.90;;;22.70;99.90;;;;;;5052085;28;20111;-83
2022/06/12 09:26:40;;;;;;;2.10;1.90;;;22.80;99.90;;;;;;5033248;28;20408;-84
2022/06/12 09:29:16;;;;;;;2.63;2.53;;;22.70;99.90;;;;;;5031419;28;20052;-85
2022/06/12 09:31:53;;;;;;;2.08;1.83;;;22.80;99.90;;;;;;4997493;28;20053;-84
2022/06/12 09:34:34;;;;;;;1.60;1.58;;;23.00;99.90;;;;;;5012950;28;20053;-84
2022/06/12 09:40:39;;;;;;;3.13;2.83;;;23.00;99.90;;;;;;5030457;28;20356;-83
2022/06/12 09:43:34;;;;;;;2.40;2.20;;;23.10;99.90;;;;;;4996882;28;20049;-84
2022/06/12 09:46:34;;;;;;;2.20;1.77;;;23.30;99.90;;;;;;5013146;28;20056;-84
2022/06/12 09:49:20;;;;;;;3.67;1.70;;;23.30;99.90;;;;;;4972485;28;20056;-85
2022/06/12 09:51:54;;;;;;;1.90;1.80;;;23.10;99.90;;;;;;4997342;28;20052;-84
2022/06/12 09:54:44;;;;;;;1.48;1.38;;;23.10;99.90;;;;;;4996466;28;20082;-84
2022/06/12 09:57:38;;;;;;;5.82;2.53;;;23.10;99.90;;;;;;5012505;28;20041;-85
2022/06/12 10:00:26;;;;;;;1.52;1.20;;;23.20;99.90;;;;;;5003726;28;20060;-85
2022/06/12 10:03:07;;;;;;;22.98;2.65;;;23.40;99.90;;;;;;5013949;28;20057;-85
2022/06/12 10:05:35;;;;;;;;;;;23.40;99.90;;;;;;5012405;28;20049;-85
2022/06/12 10:08:11;;;;;;;1.60;1.50;;;23.50;99.90;;;;;;5013095;28;19925;-85
2022/06/12 10:11:00;;;;;;;4.30;1.75;;;23.30;99.90;;;;;;5029659;28;20037;-85
2022/06/12 10:14:01;;;;;;;2.55;2.33;;;23.40;99.90;;;;;;5016239;28;20048;-85
2022/06/12 10:16:44;;;;;;;4.20;1.90;;;23.50;99.90;;;;;;5009409;28;20056;-84
2022/06/12 10:19:32;;;;;;;3.42;2.13;;;23.50;99.90;;;;;;5002700;28;20383;-84
2022/06/12 10:22:09;;;;;;;3.00;1.33;;;23.50;99.90;;;;;;4999595;28;20061;-85
2022/06/12 10:24:37;;;;;;;2.53;1.20;;;23.60;99.90;;;;;;5050573;28;20071;-85
2022/06/12 10:27:09;;;;;;;1.70;1.60;;;23.80;99.90;;;;;;5049210;28;20041;-86
2022/06/12 10:29:48;;;;;;;3.65;1.60;;;23.70;99.90;;;;;;5014885;28;20056;-83
2022/06/12 10:32:26;;;;;;;1.88;1.77;;;23.70;99.90;;;;;;5050352;28;20076;-85
2022/06/12 10:35:13;;;;;;;3.42;2.20;;;23.80;99.90;;;;;;5053716;28;20044;-85
2022/06/12 10:37:41;;;;;;;19.92;6.18;;;23.90;99.90;;;;;;5032697;28;20652;-85
2022/06/12 10:40:13;;;;;;;1.73;1.63;;;24.00;99.90;;;;;;5015570;28;20054;-86
2022/06/12 10:42:44;;;;;;;2.50;1.65;;;24.10;99.90;;;;;;4999795;28;20566;-86
2022/06/12 10:45:21;;;;;;;;;;;24.20;99.90;;;;;;5016501;28;20040;-84
2022/06/12 10:47:50;;;;;;;1.88;1.77;;;24.10;99.90;;;;;;4984059;28;19921;-85
2022/06/12 10:50:21;;;;;;;3.85;1.90;;;24.20;99.90;;;;;;5033494;28;20399;-85
2022/06/12 10:53:09;;;;;;;1.80;1.27;;;24.20;99.90;;;;;;4999636;28;20053;-84
2022/06/12 10:55:55;;;;;;;4.90;2.42;;;24.20;99.90;;;;;;5028872;28;20046;-83
2022/06/12 10:58:51;;;;;;;2.42;1.42;;;24.10;99.90;;;;;;5033119;28;20052;-86
2022/06/12 11:01:30;;;;;;;7.30;1.67;;;24.10;99.90;;;;;;5015710;28;20038;-85
2022/06/12 11:04:20;;;;;;;23.13;8.80;;;24.10;99.90;;;;;;5016042;28;20045;-85
2022/06/12 11:07:06;;;;;;;13.68;2.15;;;24.20;99.90;;;;;;5015578;28;20403;-83
2022/06/12 11:09:51;;;;;;;2.03;1.60;;;24.30;98.70;;;;;;5032923;28;20049;-83
2022/06/12 11:12:32;;;;;;;6.93;2.10;;;24.20;98.30;;;;;;5016021;28;20046;-84
2022/06/12 11:15:09;;;;;;;4.18;2.55;;;24.20;99.90;;;;;;4999055;28;20061;-84
2022/06/12 11:18:08;;;;;;;1.48;1.38;;;24.20;99.80;;;;;;4999002;28;20040;-83
2022/06/12 11:21:08;;;;;;;1.73;1.52;;;24.30;99.00;;;;;;4998898;28;20515;-83
2022/06/12 11:23:53;;;;;;;1.77;1.67;;;24.30;97.50;;;;;;5000100;28;20056;-83
2022/06/12 11:27:05;;;;;;;3.38;2.38;;;24.30;96.40;;;;;;4998480;28;20050;-85
2022/06/12 11:29:47;;;;;;;4.88;1.13;;;24.30;97.80;;;;;;5014729;28;20414;-85
2022/06/12 11:32:50;;;;;;;6.07;1.90;;;24.30;98.70;;;;;;5015824;28;20057;-85
2022/06/12 11:35:39;;;;;;;1.85;1.40;;;24.30;99.90;;;;;;4994164;28;20060;-85
2022/06/12 11:38:32;;;;;;;3.03;1.55;;;24.20;99.90;;;;;;5032386;28;20064;-85
2022/06/12 11:41:20;;;;;;;1.17;1.10;;;24.20;99.20;;;;;;5014037;28;20872;-86
2022/06/12 11:43:53;;;;;;;1.48;1.38;;;24.30;99.90;;;;;;5014970;28;20056;-84
2022/06/12 11:46:51;;;;;;;2.28;1.95;;;24.40;99.30;;;;;;5032666;28;20072;-85
2022/06/12 11:49:40;;;;;;;1.50;1.35;;;24.50;99.90;;;;;;5014885;28;20048;-85
2022/06/12 11:52:25;;;;;;;1.65;1.52;;;24.60;98.50;;;;;;5015196;28;20049;-83
2022/06/12 11:55:20;;;;;;;1.35;1.25;;;24.60;96.80;;;;;;5013756;28;20050;-86
2022/06/12 11:58:00;;;;;;;1.45;1.33;;;24.60;96.30;;;;;;4991906;28;20052;-84
2022/06/12 12:00:38;;;;;;;1.40;1.30;;;24.60;99.90;;;;;;5015602;28;20053;-84
2022/06/12 12:03:38;;;;;;;1.38;0.98;;;24.60;99.90;;;;;;5014416;28;20056;-84
2022/06/12 12:06:28;;;;;;;6.93;2.15;;;24.60;96.00;;;;;;5031827;28;20041;-84
2022/06/12 12:09:22;;;;;;;1.80;1.70;;;24.60;97.90;;;;;;5013656;28;20054;-84
2022/06/12 12:11:58;;;;;;;1.88;1.65;;;24.50;99.00;;;;;;4997320;28;20053;-84
2022/06/12 12:14:35;;;;;;;5.50;2.10;;;24.60;99.90;;;;;;5043441;28;20057;-85
2022/06/12 12:17:24;;;;;;;1.92;1.75;;;24.80;98.50;;;;;;5051562;28;20106;-85
2022/06/12 12:20:03;;;;;;;10.95;2.05;;;24.70;98.30;;;;;;5052189;28;20095;-86
2022/06/12 12:22:48;;;;;;;1.60;1.50;;;24.80;99.90;;;;;;5034057;28;20044;-85
2022/06/12 12:25:36;;;;;;;1.52;1.20;;;24.70;99.10;;;;;;5034223;28;20045;-85
2022/06/12 12:28:28;;;;;;;1.77;1.67;;;24.70;98.50;;;;;;5052137;28;20045;-84
2022/06/12 12:31:05;;;;;;;2.35;1.17;;;24.90;99.40;;;;;;5033698;28;20505;-86
2022/06/12 12:33:34;;;;;;;1.50;1.40;;;24.90;99.90;;;;;;5033589;28;20037;-85
2022/06/12 12:41:50;;;;;;;1.52;1.40;;;24.90;98.80;;;;;;5030525;28;20041;-78
2022/06/12 12:44:37;;;;;;;4.45;1.98;;;24.80;99.20;;;;;;5014607;28;20064;-78
2022/06/12 12:47:21;;;;;;;1.15;1.13;;;24.70;99.90;;;;;;5031255;28;20558;-78
2022/06/12 12:50:11;;;;;;;1.83;1.70;;;24.80;98.30;;;;;;5030531;28;20045;-78
2022/06/12 12:52:55;;;;;;;3.35;1.90;;;25.00;99.90;;;;;;5031849;28;20045;-78
2022/06/12 12:55:33;;;;;;;6.65;2.10;;;25.10;97.50;;;;;;5027010;28;20050;-78
2022/06/12 12:58:17;;;;;;;4.53;2.13;;;25.20;98.00;;;;;;5030823;28;20046;-79
2022/06/12 13:00:46;;;;;;;1.50;1.40;;;25.10;97.80;;;;;;5030470;28;20053;-78
2022/06/12 13:03:37;;;;;;;3.65;1.42;;;25.10;95.10;;;;;;5030619;28;20068;-78
2022/06/12 13:06:25;;;;;;;1.70;1.60;;;25.20;97.50;;;;;;5031080;28;20041;-78
2022/06/12 13:08:58;;;;;;;1.98;1.83;;;25.30;97.30;;;;;;5030440;28;20054;-80
2022/06/12 13:11:35;;;;;;;5.80;1.65;;;25.20;99.90;;;;;;5030551;28;20061;-78
2022/06/12 13:14:06;;;;;;;2.70;1.42;;;25.20;98.30;;;;;;5039087;28;20429;-79
2022/06/12 13:16:54;;;;;;;1.67;1.58;;;25.20;96.10;;;;;;5051871;28;20071;-79
2022/06/12 13:19:52;;;;;;;2.00;1.65;;;25.30;97.90;;;;;;5049445;28;20068;-78
2022/06/12 13:22:31;;;;;;;2.15;2.05;;;25.30;97.80;;;;;;5050574;28;20052;-79
2022/06/12 13:25:12;;;;;;;2.05;1.48;;;25.30;96.70;;;;;;5050024;28;20048;-79
2022/06/12 13:27:57;;;;;;;1.70;1.60;;;25.30;99.80;;;;;;5032381;28;20041;-79
2022/06/12 13:30:34;;;;;;;1.52;1.42;;;25.40;98.30;;;;;;5050379;28;20056;-79
2022/06/12 13:33:09;;;;;;;1.92;1.83;;;25.40;98.80;;;;;;5033273;28;20502;-79
2022/06/12 13:35:45;;;;;;;2.97;1.83;;;25.40;98.30;;;;;;5032841;28;20048;-79
2022/06/12 13:38:36;;;;;;;6.10;1.50;;;25.40;95.00;;;;;;5049832;28;20080;-79
2022/06/12 13:41:06;;;;;;;1.27;1.13;;;25.40;95.50;;;;;;5031427;28;20060;-79
2022/06/12 13:43:38;;;;;;;1.52;1.42;;;25.40;96.30;;;;;;5050665;28;20049;-79
2022/06/12 13:46:30;;;;;;;1.60;1.50;;;25.50;96.00;;;;;;5050152;28;20533;-78
2022/06/12 13:49:00;;;;;;;2.20;1.95;;;25.40;93.20;;;;;;5050238;28;20045;-79
2022/06/12 14:23:51;;;;;;;1.55;1.45;;;25.60;95.40;;;;;;5032909;28;20052;-79
2022/06/12 14:32:26;;;;;;;1.73;1.63;;;25.80;96.80;;;;;;5037831;28;20036;-79
2022/06/12 14:46:35;;;;;;;2.08;1.88;;;25.90;95.10;;;;;;5016862;28;20423;-79
2022/06/12 14:55:11;;;;;;;1.70;1.60;;;25.90;92.30;;;;;;5026768;28;20402;-79
2022/06/12 15:13:31;;;;;;;3.83;2.83;;;26.00;94.20;;;;;;5028346;28;20048;-79